Weather observations for the past three days for
Palau International Airport
Metric (Imperial)
Date Time (+09) Wind (kph) Vis. (km) Weather Sky Cond. Temperature (ºC) Relative Humidity Wind Chill (°C) Heat Index (°C) Pressure Precipitation (cm)
Air Dwpt 6 hour altimeter (cm) sea level (mb) 1 hr 3 hr 6 hr
Max. Min.
07 16:50 E 19 G 28 20.92 Mostly Cloudy BKN015TCU BKN120 BKN300 29 26 84% 36 75.54 0.0
07 15:50 E 15 G 26 20.92 Mostly Cloudy BKN015TCU BKN120 BKN310 30 26 79% 37 75.51 0.0
07 14:50 NE 17 G 30 20.92 Mostly Cloudy BKN015TCU BKN130 BKN320 31 26 75% 39 75.49 0.0
07 13:50 NE 19 G 30 20.92 Mostly Cloudy SCT015TCU BKN130 BKN320 31 26 75% 39 75.54 0.0
07 12:50 NE 19 G 28 20.92 Mostly Cloudy BKN015TCU BKN130 BKN320 31 26 75% 39 75.57 0.0
07 11:50 NE 15 G 26 20.92 Mostly Cloudy BKN015TCU BKN130 BKN320 30 26 79% 37 75.59 0.0
07 10:50 NE 11 20.92 Mostly Cloudy BKN015TCU BKN130 BKN320 30 25 75% 36 75.64 0.0
07 09:50 E 13 20.92 Mostly Cloudy BKN015TCU BKN130 BKN310 31 26 75% 39 75.69 0.0
07 08:50 E 11 20.92 Mostly Cloudy SCT016 BKN120 BKN300 30 26 79% 37 75.69 0.0
07 07:50 NE 11 20.92 Mostly Cloudy SCT016CB BKN120 BKN300 29 26 84% 36 75.69 0.0
07 06:50 NE 7 20.92 Mostly Cloudy SCT016 BKN120 BKN300 27 25 89% 31 75.64 0.0
07 05:50 N 7 20.92 Mostly Cloudy SCT015 BKN110 BKN290 25 24 94% 26 75.62 0.0
07 04:50 N 7 20.92 Mostly Cloudy SCT015 BKN110 BKN290 25 24 94% 26 75.62 0.0
07 03:50 Calm 20.92 Mostly Cloudy SCT015 BKN290 25 24 94% 26 75.59 0.0
07 02:50 N 6 20.92 Mostly Cloudy SCT015 BKN290 25 24 94% 26 75.62 0.0
07 01:50 Calm 20.92 Mostly Cloudy SCT015 BKN290 26 24 89% 28 75.64 0.0
07 00:50 Calm 20.92 Mostly Cloudy SCT015 BKN290 26 25 94% 28 75.69 0.0
06 23:50 Calm 20.92 Mostly Cloudy SCT015 BKN110 BKN290 25 24 94% 26 75.72 0.0
06 22:50 Calm 20.92 Mostly Cloudy SCT015 BKN110 BKN290 26 24 89% 28 75.77 0.0
06 21:50 NE 7 20.92 Mostly Cloudy SCT015 BKN110 BKN290 26 24 89% 28 75.77 0.0
06 20:50 NE 7 20.92 Mostly Cloudy SCT015 BKN110 BKN290 26 25 94% 28 75.74 0.0
06 19:50 NE 7 20.92 Mostly Cloudy SCT015 BKN110 BKN290 27 25 89% 31 75.74 0.0
06 18:50 NE 7 20.92 Mostly Cloudy FEW009 BKN016TCU BKN120 BKN300 27 25 89% 31 75.64 0.0
06 17:50 E 7 20.92 Mostly Cloudy FEW009 BKN016TCU BKN120 BKN300 29 25 79% 35 75.59 0.0
06 16:50 E 7 20.92 Mostly Cloudy FEW009 BKN016TCU BKN120 BKN300 30 26 79% 37 75.57 0.0
06 15:50 SE 11 20.92 Mostly Cloudy BKN016TCU BKN120 BKN300 30 26 79% 37 75.57 0.0
06 14:50 SE 7 20.92 Mostly Cloudy BKN015TCU BKN120 BKN300 29 26 84% 36 75.57 0.0
06 13:50 SE 9 19.31 Mostly Cloudy BKN015TCU BKN120 BKN300 28 26 89% 34 75.59 0.0
06 12:50 S 7 12.87 Light Showers Rain BKN015CB BKN110 BKN290 26 25 94% 28 75.62 0.0
06 11:50 N 6 16.09 Showers in Vicinity BKN015CB BKN110 BKN290 27 25 89% 31 75.67 0.0
06 10:50 SE 9 20.92 Mostly Cloudy SCT016 BKN130 BKN320 30 26 79% 37 75.69 0.0
06 09:50 SE 11 20.92 Mostly Cloudy SCT016 BKN130 BKN310 30 26 79% 37 75.72 0.0
06 08:50 E 13 20.92 Mostly Cloudy SCT016 BKN120 BKN300 29 26 84% 36 75.72 0.0
06 07:50 SE 9 20.92 Mostly Cloudy SCT016 BKN120 BKN300 28 26 89% 34 75.72 0.0
06 06:50 SE 9 20.92 Mostly Cloudy SCT015CB BKN110 BKN280 27 26 94% 31 75.69 0.0
06 05:50 E 7 19.31 Mostly Cloudy SCT015CB BKN110 BKN280 26 25 94% 28 75.64 0.0
06 04:50 SE 7 19.31 Mostly Cloudy SCT015CB BKN110 BKN280 26 25 94% 28 75.59 0.0
06 03:50 Calm 19.31 Mostly Cloudy SCT015CB BKN110 BKN280 26 25 94% 28 75.54 0.0
06 02:50 Calm 19.31 Mostly Cloudy SCT015CB BKN110 BKN280 26 25 94% 28 75.57 0.0
06 01:50 Calm 19.31 Mostly Cloudy SCT015CB BKN110 BKN280 26 25 94% 28 75.59 0.0
06 00:50 Calm 17.70 Mostly Cloudy SCT015CB BKN110 BKN280 26 25 94% 28 75.62 0.0
05 23:50 Calm 17.70 Mostly Cloudy SCT013CB BKN100 BKN280 26 25 94% 28 75.62 0.0
05 22:50 Calm 17.70 Mostly Cloudy SCT013CB BKN100 BKN280 26 25 94% 28 75.64 0.0
05 21:50 NE 6 17.70 Mostly Cloudy SCT013CB BKN100 BKN280 26 25 94% 28 75.64 0.0
05 20:50 SE 9 14.48 Light Showers Rain BKN013CB BKN100 OVC280 26 26 100% 28 75.64 0.0
05 19:50 Calm 12.87 Light Showers Rain BKN013CB BKN100 OVC280 27 25 89% 31 75.59 0.0
05 18:50 NE 6 12.87 Light Showers Rain BKN014CB BKN110 OVC290 27 25 89% 31 75.54 0.0
05 17:50 NE 7 16.09 Showers in Vicinity BKN014CB BKN110 OVC290 27 26 94% 31 75.49 0.0
05 16:50 NE 7 11.27 Light Showers Rain BKN014CB BKN110 OVC290 27 25 89% 31 75.44 0.0
05 15:50 W 7 6.44 Rain BKN014CB BKN110 OVC290 28 26 89% 34 75.44 0.0
05 14:50 S 6 12.87 Light Showers Rain BKN014TCU BKN120 OVC300 28 26 89% 34 75.46 0.0
05 13:50 S 9 12.87 Light Showers Rain BKN014TCU BKN120 BKN300 29 26 84% 36 75.49 0.0
05 12:50 W 17 20.92 Mostly Cloudy SCT015TCU BKN130 BKN320 30 26 79% 37 75.57 0.0
05 11:50 W 13 20.92 Mostly Cloudy BKN015TCU BKN130 BKN310 30 26 79% 37 75.62 0.0
05 10:50 W 11 20.92 Mostly Cloudy SCT015 BKN120 BKN300 30 25 75% 36 75.64 0.0
05 09:50 NW 9 20.92 Mostly Cloudy SCT016CB BKN120 BKN300 29 25 79% 35 75.67 0.0
05 08:50 N 7 20.92 Mostly Cloudy BKN015CB BKN110 BKN290 28 25 84% 33 75.74 0.0
05 07:50 NW 11 20.92 Overcast BKN015CB BKN110 OVC290 28 25 84% 33 75.72 0.0
05 06:50 W 9 20.92 Overcast SCT015CB BKN110 OVC290 27 25 89% 31 75.67 0.0
05 05:50 W 9 20.92 Overcast SCT015CB BKN110 OVC290 26 25 94% 28 75.62 0.0
05 04:50 SW 9 20.92 Overcast BKN015CB BKN110 OVC290 26 25 94% 28 75.59 0.0
05 03:50 W 11 20.92 Overcast BKN015CB BKN110 OVC290 26 25 94% 28 75.59 0.0
05 02:50 W 9 20.92 Overcast BKN015CB BKN110 OVC290 26 25 94% 28 75.62 0.0
05 01:50 W 11 20.92 Overcast BKN015CB BKN110 OVC290 26 25 94% 28 75.64 0.0
05 00:50 Calm 20.92 Overcast BKN015CB BKN110 OVC290 26 25 94% 28 75.69 0.0
04 23:50 Calm 20.92 Overcast SCT014CB BKN110 OVC290 26 25 94% 28 75.74 0.0
04 22:50 Calm 16.09 Light Rain SCT014CB BKN110 OVC290 26 25 94% 28 75.77 0.0
04 21:50 Calm 11.27 Light Rain SCT014CB OVC110 25 24 94% 26 75.77 0.0
04 20:50 Calm 12.87 Light Rain SCT014CB OVC110 25 24 94% 26 75.74 0.0
04 19:50 NW 6 12.87 Light Rain FEW009 BKN013CB OVC100 25 24 94% 26 75.72 0.0
04 18:50 N 6 11.27 Light Rain FEW009 BKN013CB OVC100 25 24 94% 26 75.67 0.0
04 17:50 N 11 11.27 Thunderstorm Light Rain FEW009 BKN013CB OVC100 25 24 94% 26 75.67 0.0
Date Time (+09) Wind (kph) Vis. (km) Weather Sky Cond. Air Dwpt Max. Min. Relative Humidity Wind Chill (°C) Heat Index (°C) altimeter (cm) sea level (mb) 1 hr 3 hr 6 hr
6 hour
Temperature (ºC) Pressure Precipitation (cm)